sensor_id;sensor_type;location;lat;lon;timestamp;P1;durP1;ratioP1;P2;durP2;ratioP2
21507;SDS011;10915;54.352;9.074;2022-09-09T00:09:46;214.83;;;70.90;;
21507;SDS011;10915;54.352;9.074;2022-09-09T00:15:07;200.57;;;68.37;;
21507;SDS011;10915;54.352;9.074;2022-09-09T00:17:38;194.77;;;66.40;;
21507;SDS011;10915;54.352;9.074;2022-09-09T00:20:34;92.07;;;51.47;;
21507;SDS011;10915;54.352;9.074;2022-09-09T00:28:24;94.17;;;54.17;;
21507;SDS011;10915;54.352;9.074;2022-09-09T00:30:51;96.23;;;52.43;;
21507;SDS011;10915;54.352;9.074;2022-09-09T00:33:19;108.30;;;56.17;;
21507;SDS011;10915;54.352;9.074;2022-09-09T00:35:49;116.03;;;57.67;;
21507;SDS011;10915;54.352;9.074;2022-09-09T00:38:18;152.90;;;60.53;;
21507;SDS011;10915;54.352;9.074;2022-09-09T00:40:50;164.63;;;60.83;;
21507;SDS011;10915;54.352;9.074;2022-09-09T00:43:33;104.90;;;54.70;;
21507;SDS011;10915;54.352;9.074;2022-09-09T00:51:25;197.13;;;68.67;;
21507;SDS011;10915;54.352;9.074;2022-09-09T00:59:45;85.17;;;48.03;;
21507;SDS011;10915;54.352;9.074;2022-09-09T01:02:16;132.40;;;58.03;;
21507;SDS011;10915;54.352;9.074;2022-09-09T01:04:53;116.40;;;53.40;;
21507;SDS011;10915;54.352;9.074;2022-09-09T01:07:19;124.10;;;55.80;;
21507;SDS011;10915;54.352;9.074;2022-09-09T01:09:50;117.87;;;53.20;;
21507;SDS011;10915;54.352;9.074;2022-09-09T01:20:18;119.17;;;48.90;;
21507;SDS011;10915;54.352;9.074;2022-09-09T01:25:30;129.60;;;52.43;;
21507;SDS011;10915;54.352;9.074;2022-09-09T01:28:16;113.37;;;46.87;;
21507;SDS011;10915;54.352;9.074;2022-09-09T01:30:46;118.63;;;49.97;;
21507;SDS011;10915;54.352;9.074;2022-09-09T01:33:14;122.50;;;49.13;;
21507;SDS011;10915;54.352;9.074;2022-09-09T01:35:52;100.80;;;44.83;;
21507;SDS011;10915;54.352;9.074;2022-09-09T01:38:25;109.13;;;46.13;;
21507;SDS011;10915;54.352;9.074;2022-09-09T01:40:52;120.70;;;48.60;;
21507;SDS011;10915;54.352;9.074;2022-09-09T01:43:21;115.70;;;48.43;;
21507;SDS011;10915;54.352;9.074;2022-09-09T01:45:49;110.00;;;45.53;;
21507;SDS011;10915;54.352;9.074;2022-09-09T01:48:19;135.83;;;51.90;;
21507;SDS011;10915;54.352;9.074;2022-09-09T01:50:46;97.23;;;45.40;;
21507;SDS011;10915;54.352;9.074;2022-09-09T01:53:12;101.90;;;46.07;;
21507;SDS011;10915;54.352;9.074;2022-09-09T01:55:41;107.73;;;46.33;;
21507;SDS011;10915;54.352;9.074;2022-09-09T02:01:07;112.00;;;47.47;;
21507;SDS011;10915;54.352;9.074;2022-09-09T02:03:44;103.90;;;43.97;;
21507;SDS011;10915;54.352;9.074;2022-09-09T02:08:50;89.87;;;39.67;;
21507;SDS011;10915;54.352;9.074;2022-09-09T02:11:21;129.63;;;38.73;;
21507;SDS011;10915;54.352;9.074;2022-09-09T02:13:49;92.87;;;35.13;;
21507;SDS011;10915;54.352;9.074;2022-09-09T02:16:18;131.43;;;35.10;;
21507;SDS011;10915;54.352;9.074;2022-09-09T02:21:35;70.20;;;31.93;;
21507;SDS011;10915;54.352;9.074;2022-09-09T02:24:02;71.83;;;33.20;;
21507;SDS011;10915;54.352;9.074;2022-09-09T02:26:33;77.37;;;35.33;;
21507;SDS011;10915;54.352;9.074;2022-09-09T02:29:01;108.00;;;36.50;;
21507;SDS011;10915;54.352;9.074;2022-09-09T02:31:29;77.90;;;37.00;;
21507;SDS011;10915;54.352;9.074;2022-09-09T02:34:00;117.60;;;38.63;;
21507;SDS011;10915;54.352;9.074;2022-09-09T02:36:29;86.20;;;35.27;;
21507;SDS011;10915;54.352;9.074;2022-09-09T02:38:58;81.20;;;36.37;;
21507;SDS011;10915;54.352;9.074;2022-09-09T02:41:32;90.13;;;37.43;;
21507;SDS011;10915;54.352;9.074;2022-09-09T02:43:59;89.80;;;38.17;;
21507;SDS011;10915;54.352;9.074;2022-09-09T02:49:43;129.40;;;37.07;;
21507;SDS011;10915;54.352;9.074;2022-09-09T02:53:07;90.80;;;36.97;;
21507;SDS011;10915;54.352;9.074;2022-09-09T02:55:23;81.60;;;36.70;;
21507;SDS011;10915;54.352;9.074;2022-09-09T02:57:57;79.07;;;36.83;;
21507;SDS011;10915;54.352;9.074;2022-09-09T03:00:25;77.60;;;35.90;;
21507;SDS011;10915;54.352;9.074;2022-09-09T03:02:52;106.93;;;40.97;;
21507;SDS011;10915;54.352;9.074;2022-09-09T03:05:19;79.77;;;37.30;;
21507;SDS011;10915;54.352;9.074;2022-09-09T03:07:46;74.83;;;35.70;;
21507;SDS011;10915;54.352;9.074;2022-09-09T03:10:12;72.07;;;35.40;;
21507;SDS011;10915;54.352;9.074;2022-09-09T03:12:38;135.33;;;40.50;;
21507;SDS011;10915;54.352;9.074;2022-09-09T03:15:04;63.27;;;33.90;;
21507;SDS011;10915;54.352;9.074;2022-09-09T03:17:31;67.83;;;34.93;;
21507;SDS011;10915;54.352;9.074;2022-09-09T03:19:56;64.47;;;33.50;;
21507;SDS011;10915;54.352;9.074;2022-09-09T03:22:24;74.80;;;34.80;;
21507;SDS011;10915;54.352;9.074;2022-09-09T03:24:50;79.30;;;37.20;;
21507;SDS011;10915;54.352;9.074;2022-09-09T03:27:16;108.20;;;37.90;;
21507;SDS011;10915;54.352;9.074;2022-09-09T03:29:44;74.57;;;33.80;;
21507;SDS011;10915;54.352;9.074;2022-09-09T03:32:10;127.47;;;35.77;;
21507;SDS011;10915;54.352;9.074;2022-09-09T03:34:37;98.23;;;37.43;;
21507;SDS011;10915;54.352;9.074;2022-09-09T03:37:05;54.23;;;34.07;;
21507;SDS011;10915;54.352;9.074;2022-09-09T03:39:31;241.93;;;45.60;;
21507;SDS011;10915;54.352;9.074;2022-09-09T03:41:57;77.33;;;36.00;;
21507;SDS011;10915;54.352;9.074;2022-09-09T03:44:22;216.83;;;43.17;;
21507;SDS011;10915;54.352;9.074;2022-09-09T03:46:48;76.03;;;35.37;;
21507;SDS011;10915;54.352;9.074;2022-09-09T03:49:14;70.20;;;35.70;;
21507;SDS011;10915;54.352;9.074;2022-09-09T03:51:40;59.83;;;32.20;;
21507;SDS011;10915;54.352;9.074;2022-09-09T03:54:06;57.13;;;31.17;;
21507;SDS011;10915;54.352;9.074;2022-09-09T03:56:33;80.53;;;35.10;;
21507;SDS011;10915;54.352;9.074;2022-09-09T03:59:00;212.23;;;41.57;;
21507;SDS011;10915;54.352;9.074;2022-09-09T04:01:25;62.33;;;33.87;;
21507;SDS011;10915;54.352;9.074;2022-09-09T04:03:51;62.97;;;34.53;;
21507;SDS011;10915;54.352;9.074;2022-09-09T04:06:17;62.20;;;36.03;;
21507;SDS011;10915;54.352;9.074;2022-09-09T04:08:45;94.30;;;38.77;;
21507;SDS011;10915;54.352;9.074;2022-09-09T04:11:13;253.07;;;52.37;;
21507;SDS011;10915;54.352;9.074;2022-09-09T04:13:40;111.90;;;38.73;;
21507;SDS011;10915;54.352;9.074;2022-09-09T04:16:06;85.57;;;35.93;;
21507;SDS011;10915;54.352;9.074;2022-09-09T04:18:35;65.50;;;36.90;;
21507;SDS011;10915;54.352;9.074;2022-09-09T04:21:01;128.80;;;38.50;;
21507;SDS011;10915;54.352;9.074;2022-09-09T04:23:28;84.10;;;39.90;;
21507;SDS011;10915;54.352;9.074;2022-09-09T04:25:54;58.53;;;35.50;;
21507;SDS011;10915;54.352;9.074;2022-09-09T04:28:21;65.50;;;35.27;;
21507;SDS011;10915;54.352;9.074;2022-09-09T04:30:48;150.30;;;41.80;;
21507;SDS011;10915;54.352;9.074;2022-09-09T04:33:14;319.90;;;52.73;;
21507;SDS011;10915;54.352;9.074;2022-09-09T04:35:49;71.60;;;38.47;;
21507;SDS011;10915;54.352;9.074;2022-09-09T04:38:16;70.83;;;38.47;;
21507;SDS011;10915;54.352;9.074;2022-09-09T04:40:51;73.27;;;39.50;;
21507;SDS011;10915;54.352;9.074;2022-09-09T04:43:18;96.37;;;40.77;;
21507;SDS011;10915;54.352;9.074;2022-09-09T04:45:49;91.73;;;40.40;;
21507;SDS011;10915;54.352;9.074;2022-09-09T04:48:19;67.87;;;37.80;;
21507;SDS011;10915;54.352;9.074;2022-09-09T04:50:59;75.30;;;39.67;;
21507;SDS011;10915;54.352;9.074;2022-09-09T04:53:26;84.00;;;40.20;;
21507;SDS011;10915;54.352;9.074;2022-09-09T04:56:04;72.87;;;40.37;;
21507;SDS011;10915;54.352;9.074;2022-09-09T04:58:37;121.30;;;43.40;;
21507;SDS011;10915;54.352;9.074;2022-09-09T05:03:32;75.37;;;41.97;;
21507;SDS011;10915;54.352;9.074;2022-09-09T05:06:02;71.17;;;41.20;;
21507;SDS011;10915;54.352;9.074;2022-09-09T05:08:29;75.97;;;42.20;;
21507;SDS011;10915;54.352;9.074;2022-09-09T05:10:54;153.07;;;46.30;;
21507;SDS011;10915;54.352;9.074;2022-09-09T05:13:20;88.40;;;42.27;;
21507;SDS011;10915;54.352;9.074;2022-09-09T05:15:51;82.03;;;41.73;;
21507;SDS011;10915;54.352;9.074;2022-09-09T05:18:17;90.07;;;44.43;;
21507;SDS011;10915;54.352;9.074;2022-09-09T05:20:43;90.77;;;41.93;;
21507;SDS011;10915;54.352;9.074;2022-09-09T05:23:09;78.67;;;43.17;;
21507;SDS011;10915;54.352;9.074;2022-09-09T05:25:37;212.60;;;52.90;;
21507;SDS011;10915;54.352;9.074;2022-09-09T05:28:02;77.93;;;43.70;;
21507;SDS011;10915;54.352;9.074;2022-09-09T05:30:28;89.57;;;45.80;;
21507;SDS011;10915;54.352;9.074;2022-09-09T05:32:55;89.93;;;46.13;;
21507;SDS011;10915;54.352;9.074;2022-09-09T05:35:21;76.13;;;41.60;;
21507;SDS011;10915;54.352;9.074;2022-09-09T05:37:48;116.67;;;45.73;;
21507;SDS011;10915;54.352;9.074;2022-09-09T05:40:14;232.30;;;54.37;;
21507;SDS011;10915;54.352;9.074;2022-09-09T05:42:40;101.10;;;47.70;;
21507;SDS011;10915;54.352;9.074;2022-09-09T05:45:07;90.40;;;47.17;;
21507;SDS011;10915;54.352;9.074;2022-09-09T05:47:33;101.50;;;49.53;;
21507;SDS011;10915;54.352;9.074;2022-09-09T05:50:00;110.90;;;48.97;;
21507;SDS011;10915;54.352;9.074;2022-09-09T05:52:26;90.43;;;47.20;;
21507;SDS011;10915;54.352;9.074;2022-09-09T05:54:52;91.67;;;48.77;;
21507;SDS011;10915;54.352;9.074;2022-09-09T05:57:20;84.80;;;47.73;;
21507;SDS011;10915;54.352;9.074;2022-09-09T05:59:45;97.43;;;49.33;;
21507;SDS011;10915;54.352;9.074;2022-09-09T06:02:11;334.67;;;69.37;;
21507;SDS011;10915;54.352;9.074;2022-09-09T06:04:38;125.97;;;54.50;;
21507;SDS011;10915;54.352;9.074;2022-09-09T06:07:04;96.97;;;51.33;;
21507;SDS011;10915;54.352;9.074;2022-09-09T06:09:30;99.60;;;51.60;;
21507;SDS011;10915;54.352;9.074;2022-09-09T06:11:56;100.07;;;53.83;;
21507;SDS011;10915;54.352;9.074;2022-09-09T06:14:23;104.80;;;50.77;;
21507;SDS011;10915;54.352;9.074;2022-09-09T06:16:50;137.87;;;58.73;;
21507;SDS011;10915;54.352;9.074;2022-09-09T06:19:16;104.77;;;52.00;;
21507;SDS011;10915;54.352;9.074;2022-09-09T06:21:42;102.27;;;51.23;;
21507;SDS011;10915;54.352;9.074;2022-09-09T06:24:09;91.40;;;47.53;;
21507;SDS011;10915;54.352;9.074;2022-09-09T06:26:38;95.63;;;49.83;;
21507;SDS011;10915;54.352;9.074;2022-09-09T06:29:07;81.23;;;46.87;;
21507;SDS011;10915;54.352;9.074;2022-09-09T06:31:35;113.50;;;54.13;;
21507;SDS011;10915;54.352;9.074;2022-09-09T06:34:04;116.00;;;53.93;;
21507;SDS011;10915;54.352;9.074;2022-09-09T06:36:32;110.03;;;54.87;;
21507;SDS011;10915;54.352;9.074;2022-09-09T06:38:58;117.90;;;53.43;;
21507;SDS011;10915;54.352;9.074;2022-09-09T06:41:26;96.17;;;51.50;;
21507;SDS011;10915;54.352;9.074;2022-09-09T06:43:53;92.40;;;49.73;;
21507;SDS011;10915;54.352;9.074;2022-09-09T06:46:23;122.47;;;56.10;;
21507;SDS011;10915;54.352;9.074;2022-09-09T06:48:54;118.63;;;55.87;;
21507;SDS011;10915;54.352;9.074;2022-09-09T06:51:24;110.67;;;56.60;;
21507;SDS011;10915;54.352;9.074;2022-09-09T06:53:59;92.20;;;50.70;;
21507;SDS011;10915;54.352;9.074;2022-09-09T06:56:36;91.77;;;51.57;;
21507;SDS011;10915;54.352;9.074;2022-09-09T06:59:05;83.00;;;48.53;;
21507;SDS011;10915;54.352;9.074;2022-09-09T07:01:41;82.93;;;49.77;;
21507;SDS011;10915;54.352;9.074;2022-09-09T07:04:11;88.73;;;52.50;;
21507;SDS011;10915;54.352;9.074;2022-09-09T07:06:39;77.70;;;49.57;;
21507;SDS011;10915;54.352;9.074;2022-09-09T07:09:09;86.23;;;51.63;;
21507;SDS011;10915;54.352;9.074;2022-09-09T07:11:43;78.60;;;49.17;;
21507;SDS011;10915;54.352;9.074;2022-09-09T07:14:10;74.00;;;45.40;;
21507;SDS011;10915;54.352;9.074;2022-09-09T07:16:38;71.43;;;45.53;;
21507;SDS011;10915;54.352;9.074;2022-09-09T07:19:07;72.57;;;45.00;;
21507;SDS011;10915;54.352;9.074;2022-09-09T07:21:33;67.33;;;44.37;;
21507;SDS011;10915;54.352;9.074;2022-09-09T07:23:59;62.83;;;42.97;;
21507;SDS011;10915;54.352;9.074;2022-09-09T07:26:26;60.83;;;43.17;;
21507;SDS011;10915;54.352;9.074;2022-09-09T07:28:53;52.53;;;37.90;;
21507;SDS011;10915;54.352;9.074;2022-09-09T07:31:22;45.17;;;36.10;;
21507;SDS011;10915;54.352;9.074;2022-09-09T07:33:51;47.47;;;35.33;;
21507;SDS011;10915;54.352;9.074;2022-09-09T07:38:47;44.80;;;33.50;;
21507;SDS011;10915;54.352;9.074;2022-09-09T07:41:17;41.17;;;30.23;;
21507;SDS011;10915;54.352;9.074;2022-09-09T07:43:45;34.80;;;28.40;;
21507;SDS011;10915;54.352;9.074;2022-09-09T07:46:13;34.73;;;26.93;;
21507;SDS011;10915;54.352;9.074;2022-09-09T07:48:46;28.37;;;22.93;;
21507;SDS011;10915;54.352;9.074;2022-09-09T07:51:17;26.97;;;22.40;;
21507;SDS011;10915;54.352;9.074;2022-09-09T07:53:55;31.60;;;23.20;;
21507;SDS011;10915;54.352;9.074;2022-09-09T07:56:27;24.53;;;21.07;;
21507;SDS011;10915;54.352;9.074;2022-09-09T07:58:54;25.63;;;22.30;;
21507;SDS011;10915;54.352;9.074;2022-09-09T08:01:22;24.00;;;21.13;;
21507;SDS011;10915;54.352;9.074;2022-09-09T08:03:54;21.47;;;17.97;;
21507;SDS011;10915;54.352;9.074;2022-09-09T08:06:31;22.37;;;18.50;;
21507;SDS011;10915;54.352;9.074;2022-09-09T08:09:00;23.13;;;20.03;;
21507;SDS011;10915;54.352;9.074;2022-09-09T08:11:27;20.47;;;18.27;;
21507;SDS011;10915;54.352;9.074;2022-09-09T08:13:55;23.60;;;19.10;;
21507;SDS011;10915;54.352;9.074;2022-09-09T08:16:22;27.40;;;19.23;;
21507;SDS011;10915;54.352;9.074;2022-09-09T08:18:50;26.40;;;20.07;;
21507;SDS011;10915;54.352;9.074;2022-09-09T08:21:21;27.40;;;20.30;;
21507;SDS011;10915;54.352;9.074;2022-09-09T08:23:55;26.63;;;20.63;;
21507;SDS011;10915;54.352;9.074;2022-09-09T08:26:25;24.90;;;21.70;;
21507;SDS011;10915;54.352;9.074;2022-09-09T08:28:54;26.33;;;22.97;;
21507;SDS011;10915;54.352;9.074;2022-09-09T08:31:23;30.37;;;24.77;;
21507;SDS011;10915;54.352;9.074;2022-09-09T08:33:50;27.43;;;24.33;;
21507;SDS011;10915;54.352;9.074;2022-09-09T08:36:17;28.67;;;25.63;;
21507;SDS011;10915;54.352;9.074;2022-09-09T08:38:54;29.27;;;26.10;;
21507;SDS011;10915;54.352;9.074;2022-09-09T08:49:30;34.43;;;30.87;;
21507;SDS011;10915;54.352;9.074;2022-09-09T08:53:01;40.07;;;35.57;;
21507;SDS011;10915;54.352;9.074;2022-09-09T08:55:20;40.77;;;36.70;;
21507;SDS011;10915;54.352;9.074;2022-09-09T08:58:14;37.70;;;33.13;;
21507;SDS011;10915;54.352;9.074;2022-09-09T09:00:48;29.57;;;26.43;;
21507;SDS011;10915;54.352;9.074;2022-09-09T09:11:48;32.30;;;28.03;;
21507;SDS011;10915;54.352;9.074;2022-09-09T09:19:14;21.67;;;19.33;;
21507;SDS011;10915;54.352;9.074;2022-09-09T09:21:42;23.80;;;21.37;;
21507;SDS011;10915;54.352;9.074;2022-09-09T09:27:13;23.83;;;21.07;;
21507;SDS011;10915;54.352;9.074;2022-09-09T09:29:41;21.33;;;19.13;;
21507;SDS011;10915;54.352;9.074;2022-09-09T09:32:10;22.30;;;19.90;;
21507;SDS011;10915;54.352;9.074;2022-09-09T09:34:39;23.23;;;20.73;;
21507;SDS011;10915;54.352;9.074;2022-09-09T09:37:12;23.87;;;21.30;;
21507;SDS011;10915;54.352;9.074;2022-09-09T09:39:45;23.23;;;20.73;;
21507;SDS011;10915;54.352;9.074;2022-09-09T09:42:12;23.10;;;20.23;;
21507;SDS011;10915;54.352;9.074;2022-09-09T09:44:39;22.43;;;19.47;;
21507;SDS011;10915;54.352;9.074;2022-09-09T09:47:07;19.87;;;17.77;;
21507;SDS011;10915;54.352;9.074;2022-09-09T09:49:34;18.27;;;16.40;;
21507;SDS011;10915;54.352;9.074;2022-09-09T09:52:00;19.00;;;17.00;;
21507;SDS011;10915;54.352;9.074;2022-09-09T09:54:28;17.23;;;15.47;;
21507;SDS011;10915;54.352;9.074;2022-09-09T09:56:56;21.20;;;17.90;;
21507;SDS011;10915;54.352;9.074;2022-09-09T09:59:36;17.30;;;14.10;;
21507;SDS011;10915;54.352;9.074;2022-09-09T10:02:12;17.63;;;15.83;;
21507;SDS011;10915;54.352;9.074;2022-09-09T10:05:05;17.47;;;15.63;;
21507;SDS011;10915;54.352;9.074;2022-09-09T10:07:38;20.23;;;15.53;;
21507;SDS011;10915;54.352;9.074;2022-09-09T10:10:04;17.10;;;14.03;;
21507;SDS011;10915;54.352;9.074;2022-09-09T10:12:41;14.07;;;12.67;;
21507;SDS011;10915;54.352;9.074;2022-09-09T10:15:29;18.60;;;13.00;;
21507;SDS011;10915;54.352;9.074;2022-09-09T10:26:29;13.30;;;11.23;;
21507;SDS011;10915;54.352;9.074;2022-09-09T10:38:08;8.27;;;6.10;;
21507;SDS011;10915;54.352;9.074;2022-09-09T10:57:27;8.77;;;5.03;;
21507;SDS011;10915;54.352;9.074;2022-09-09T11:00:02;8.07;;;5.10;;
21507;SDS011;10915;54.352;9.074;2022-09-09T11:02:31;4.97;;;3.10;;
21507;SDS011;10915;54.352;9.074;2022-09-09T11:05:00;8.67;;;3.30;;
21507;SDS011;10915;54.352;9.074;2022-09-09T11:10:23;8.37;;;2.93;;
21507;SDS011;10915;54.352;9.074;2022-09-09T11:12:50;3.10;;;2.30;;
21507;SDS011;10915;54.352;9.074;2022-09-09T11:15:25;5.13;;;2.10;;
21507;SDS011;10915;54.352;9.074;2022-09-09T11:17:56;4.07;;;2.00;;
21507;SDS011;10915;54.352;9.074;2022-09-09T11:20:26;3.87;;;2.30;;
21507;SDS011;10915;54.352;9.074;2022-09-09T11:23:04;4.77;;;2.27;;
21507;SDS011;10915;54.352;9.074;2022-09-09T11:41:38;6.73;;;3.50;;
21507;SDS011;10915;54.352;9.074;2022-09-09T11:50:26;3.50;;;1.60;;
21507;SDS011;10915;54.352;9.074;2022-09-09T11:55:39;3.40;;;1.30;;
21507;SDS011;10915;54.352;9.074;2022-09-09T12:00:40;1.70;;;0.70;;
21507;SDS011;10915;54.352;9.074;2022-09-09T12:05:59;3.30;;;1.07;;
21507;SDS011;10915;54.352;9.074;2022-09-09T12:08:53;3.60;;;0.90;;
21507;SDS011;10915;54.352;9.074;2022-09-09T12:11:24;4.00;;;0.50;;
21507;SDS011;10915;54.352;9.074;2022-09-09T12:13:56;1.90;;;0.50;;
21507;SDS011;10915;54.352;9.074;2022-09-09T12:19:04;2.33;;;0.50;;
21507;SDS011;10915;54.352;9.074;2022-09-09T12:21:49;3.60;;;0.33;;
21507;SDS011;10915;54.352;9.074;2022-09-09T12:24:34;1.37;;;0.50;;
21507;SDS011;10915;54.352;9.074;2022-09-09T12:29:47;2.77;;;0.60;;
21507;SDS011;10915;54.352;9.074;2022-09-09T12:32:17;3.70;;;0.67;;
21507;SDS011;10915;54.352;9.074;2022-09-09T12:34:49;3.50;;;0.63;;
21507;SDS011;10915;54.352;9.074;2022-09-09T12:37:31;2.03;;;0.47;;
21507;SDS011;10915;54.352;9.074;2022-09-09T12:42:29;1.40;;;0.30;;
21507;SDS011;10915;54.352;9.074;2022-09-09T12:45:02;3.07;;;0.70;;
21507;SDS011;10915;54.352;9.074;2022-09-09T12:47:34;2.20;;;0.67;;
21507;SDS011;10915;54.352;9.074;2022-09-09T12:50:27;5.23;;;1.00;;
21507;SDS011;10915;54.352;9.074;2022-09-09T12:52:58;1.03;;;0.40;;
21507;SDS011;10915;54.352;9.074;2022-09-09T12:55:29;1.67;;;0.40;;
21507;SDS011;10915;54.352;9.074;2022-09-09T12:57:58;1.70;;;0.57;;
21507;SDS011;10915;54.352;9.074;2022-09-09T13:00:25;3.60;;;0.63;;
21507;SDS011;10915;54.352;9.074;2022-09-09T13:02:55;2.93;;;1.03;;
21507;SDS011;10915;54.352;9.074;2022-09-09T13:08:11;2.67;;;0.37;;
21507;SDS011;10915;54.352;9.074;2022-09-09T13:11:00;0.47;;;0.30;;
21507;SDS011;10915;54.352;9.074;2022-09-09T13:15:56;2.73;;;0.80;;
21507;SDS011;10915;54.352;9.074;2022-09-09T13:18:24;2.03;;;0.73;;
21507;SDS011;10915;54.352;9.074;2022-09-09T13:20:55;0.97;;;0.53;;
21507;SDS011;10915;54.352;9.074;2022-09-09T13:23:34;4.13;;;1.00;;
21507;SDS011;10915;54.352;9.074;2022-09-09T13:26:03;1.50;;;0.60;;
21507;SDS011;10915;54.352;9.074;2022-09-09T13:28:31;2.97;;;0.83;;
21507;SDS011;10915;54.352;9.074;2022-09-09T13:33:36;1.90;;;0.87;;
21507;SDS011;10915;54.352;9.074;2022-09-09T13:36:09;1.80;;;0.90;;
21507;SDS011;10915;54.352;9.074;2022-09-09T13:38:38;4.03;;;1.10;;
21507;SDS011;10915;54.352;9.074;2022-09-09T13:41:21;4.97;;;1.20;;
21507;SDS011;10915;54.352;9.074;2022-09-09T13:43:53;4.57;;;0.97;;
21507;SDS011;10915;54.352;9.074;2022-09-09T13:48:58;3.57;;;0.93;;
21507;SDS011;10915;54.352;9.074;2022-09-09T13:51:29;5.93;;;1.40;;
21507;SDS011;10915;54.352;9.074;2022-09-09T13:53:59;2.77;;;0.97;;
21507;SDS011;10915;54.352;9.074;2022-09-09T13:56:25;3.07;;;1.57;;
21507;SDS011;10915;54.352;9.074;2022-09-09T13:58:51;2.63;;;0.60;;
21507;SDS011;10915;54.352;9.074;2022-09-09T14:01:17;5.27;;;1.30;;
21507;SDS011;10915;54.352;9.074;2022-09-09T14:03:42;2.53;;;1.03;;
21507;SDS011;10915;54.352;9.074;2022-09-09T14:06:09;5.90;;;1.30;;
21507;SDS011;10915;54.352;9.074;2022-09-09T14:08:36;3.30;;;1.20;;
21507;SDS011;10915;54.352;9.074;2022-09-09T14:11:05;3.20;;;0.93;;
21507;SDS011;10915;54.352;9.074;2022-09-09T14:13:32;5.63;;;0.97;;
21507;SDS011;10915;54.352;9.074;2022-09-09T14:15:57;4.37;;;1.03;;
21507;SDS011;10915;54.352;9.074;2022-09-09T14:18:23;2.67;;;0.70;;
21507;SDS011;10915;54.352;9.074;2022-09-09T14:20:50;5.20;;;0.63;;
21507;SDS011;10915;54.352;9.074;2022-09-09T14:23:16;5.27;;;0.97;;
21507;SDS011;10915;54.352;9.074;2022-09-09T14:25:42;2.43;;;0.73;;
21507;SDS011;10915;54.352;9.074;2022-09-09T14:28:09;4.23;;;0.87;;
21507;SDS011;10915;54.352;9.074;2022-09-09T14:30:36;3.20;;;0.87;;
21507;SDS011;10915;54.352;9.074;2022-09-09T14:33:06;3.73;;;0.80;;
21507;SDS011;10915;54.352;9.074;2022-09-09T14:35:33;4.67;;;1.10;;
21507;SDS011;10915;54.352;9.074;2022-09-09T14:37:59;2.43;;;0.83;;
21507;SDS011;10915;54.352;9.074;2022-09-09T14:40:26;3.23;;;0.73;;
21507;SDS011;10915;54.352;9.074;2022-09-09T14:42:52;2.47;;;0.80;;
21507;SDS011;10915;54.352;9.074;2022-09-09T14:45:18;2.90;;;0.70;;
21507;SDS011;10915;54.352;9.074;2022-09-09T14:47:44;2.33;;;0.90;;
21507;SDS011;10915;54.352;9.074;2022-09-09T14:50:10;2.67;;;1.00;;
21507;SDS011;10915;54.352;9.074;2022-09-09T14:52:37;4.07;;;1.40;;
21507;SDS011;10915;54.352;9.074;2022-09-09T14:55:03;3.07;;;1.30;;
21507;SDS011;10915;54.352;9.074;2022-09-09T14:57:29;3.83;;;1.83;;
21507;SDS011;10915;54.352;9.074;2022-09-09T14:59:55;2.90;;;1.53;;
21507;SDS011;10915;54.352;9.074;2022-09-09T15:02:21;5.47;;;2.10;;
21507;SDS011;10915;54.352;9.074;2022-09-09T15:04:47;4.50;;;1.67;;
21507;SDS011;10915;54.352;9.074;2022-09-09T15:07:15;4.57;;;2.17;;
21507;SDS011;10915;54.352;9.074;2022-09-09T15:09:41;2.53;;;1.87;;
21507;SDS011;10915;54.352;9.074;2022-09-09T15:12:07;6.53;;;2.27;;
21507;SDS011;10915;54.352;9.074;2022-09-09T15:14:33;6.67;;;2.10;;
21507;SDS011;10915;54.352;9.074;2022-09-09T15:17:00;7.17;;;2.57;;
21507;SDS011;10915;54.352;9.074;2022-09-09T15:19:26;10.60;;;3.83;;
21507;SDS011;10915;54.352;9.074;2022-09-09T15:21:51;5.40;;;2.67;;
21507;SDS011;10915;54.352;9.074;2022-09-09T15:24:17;6.97;;;2.40;;
21507;SDS011;10915;54.352;9.074;2022-09-09T15:26:43;8.73;;;2.50;;
21507;SDS011;10915;54.352;9.074;2022-09-09T15:29:08;10.47;;;2.77;;
21507;SDS011;10915;54.352;9.074;2022-09-09T15:31:34;14.57;;;3.37;;
21507;SDS011;10915;54.352;9.074;2022-09-09T15:34:01;8.63;;;3.67;;
21507;SDS011;10915;54.352;9.074;2022-09-09T15:36:42;11.20;;;2.27;;
21507;SDS011;10915;54.352;9.074;2022-09-09T15:39:09;7.60;;;2.20;;
21507;SDS011;10915;54.352;9.074;2022-09-09T15:41:44;9.30;;;3.17;;
21507;SDS011;10915;54.352;9.074;2022-09-09T15:44:11;5.73;;;2.87;;
21507;SDS011;10915;54.352;9.074;2022-09-09T15:46:38;9.60;;;2.60;;
21507;SDS011;10915;54.352;9.074;2022-09-09T15:49:14;6.07;;;3.33;;
21507;SDS011;10915;54.352;9.074;2022-09-09T15:51:40;9.87;;;3.47;;
21507;SDS011;10915;54.352;9.074;2022-09-09T15:54:09;11.17;;;3.50;;
21507;SDS011;10915;54.352;9.074;2022-09-09T15:56:37;8.27;;;3.43;;
21507;SDS011;10915;54.352;9.074;2022-09-09T15:59:02;5.27;;;3.60;;
21507;SDS011;10915;54.352;9.074;2022-09-09T16:01:28;6.53;;;3.63;;
21507;SDS011;10915;54.352;9.074;2022-09-09T16:03:56;4.23;;;3.27;;
21507;SDS011;10915;54.352;9.074;2022-09-09T16:06:23;7.47;;;4.10;;
21507;SDS011;10915;54.352;9.074;2022-09-09T16:08:50;7.10;;;4.17;;
21507;SDS011;10915;54.352;9.074;2022-09-09T16:11:21;5.97;;;4.27;;
21507;SDS011;10915;54.352;9.074;2022-09-09T16:13:52;6.30;;;4.30;;
21507;SDS011;10915;54.352;9.074;2022-09-09T16:16:20;6.77;;;5.03;;
21507;SDS011;10915;54.352;9.074;2022-09-09T16:18:51;7.13;;;4.70;;
21507;SDS011;10915;54.352;9.074;2022-09-09T16:21:29;6.37;;;4.60;;
21507;SDS011;10915;54.352;9.074;2022-09-09T16:23:57;6.90;;;5.33;;
21507;SDS011;10915;54.352;9.074;2022-09-09T16:26:24;6.80;;;5.07;;
21507;SDS011;10915;54.352;9.074;2022-09-09T16:28:50;5.50;;;4.97;;
21507;SDS011;10915;54.352;9.074;2022-09-09T16:31:19;8.40;;;5.00;;
21507;SDS011;10915;54.352;9.074;2022-09-09T16:33:46;6.00;;;5.37;;
21507;SDS011;10915;54.352;9.074;2022-09-09T16:36:13;13.67;;;5.90;;
21507;SDS011;10915;54.352;9.074;2022-09-09T16:38:47;8.17;;;5.63;;
21507;SDS011;10915;54.352;9.074;2022-09-09T16:41:16;8.23;;;5.00;;
21507;SDS011;10915;54.352;9.074;2022-09-09T16:43:42;10.40;;;5.10;;
21507;SDS011;10915;54.352;9.074;2022-09-09T16:46:14;7.17;;;5.57;;
21507;SDS011;10915;54.352;9.074;2022-09-09T16:48:43;6.63;;;4.70;;
21507;SDS011;10915;54.352;9.074;2022-09-09T16:51:15;5.40;;;4.63;;
21507;SDS011;10915;54.352;9.074;2022-09-09T16:53:45;7.40;;;4.50;;
21507;SDS011;10915;54.352;9.074;2022-09-09T16:56:13;6.90;;;4.70;;
21507;SDS011;10915;54.352;9.074;2022-09-09T16:58:41;5.90;;;4.47;;
21507;SDS011;10915;54.352;9.074;2022-09-09T17:01:10;6.77;;;5.10;;
21507;SDS011;10915;54.352;9.074;2022-09-09T17:03:39;7.57;;;5.37;;
21507;SDS011;10915;54.352;9.074;2022-09-09T17:06:08;6.70;;;5.03;;
21507;SDS011;10915;54.352;9.074;2022-09-09T17:08:35;7.07;;;5.70;;
21507;SDS011;10915;54.352;9.074;2022-09-09T17:11:01;8.23;;;5.20;;
21507;SDS011;10915;54.352;9.074;2022-09-09T17:13:26;5.87;;;4.93;;
21507;SDS011;10915;54.352;9.074;2022-09-09T17:15:52;6.67;;;5.40;;
21507;SDS011;10915;54.352;9.074;2022-09-09T17:18:18;10.20;;;6.33;;
21507;SDS011;10915;54.352;9.074;2022-09-09T17:20:43;9.77;;;7.07;;
21507;SDS011;10915;54.352;9.074;2022-09-09T17:23:10;7.90;;;6.30;;
21507;SDS011;10915;54.352;9.074;2022-09-09T17:25:38;8.33;;;6.27;;
21507;SDS011;10915;54.352;9.074;2022-09-09T17:28:04;9.70;;;6.07;;